RJOO F M0000
ILS RWY32L USING RWY 32L/32R KANSAI DEP FREQ 119.5, INFORM YR LDG RWY TO OSAKA TWR ON INITIAL CTC. M 170000Z VRB02KT 20KM FEW080AC SCT120AC BKN/// 18/12 Q1014/A2997 RMK MOD TURB OBS AT 2340Z 20NM NE OHDAI BTN FL220 AND FL190 IN DES E190 AND MOD TURB OBS AT 2342Z OVER ROSIE BTN FL170 AND FL150 IN DES B738= Q/TWO NINE NINE SEVEN STP

TAF RJOO 162306Z 1700/1806 32004KT 9999 FEW030
BECMG 1702/1704 22006KT
BECMG 1708/1710 32004KT
BECMG 1800/1803 22006KT